0VA3 weather

Hunt Airport
Manquin, Virginia, United States

Public forecast

Using degrees Fahrenheit for public forecast. Weather courtesy of forecast.io.

METAR (pilot weather report)

Closest report is New Kent County Airport, 11.8 nm (21.9 km) S. Retrieved UTC (0 seconds ago):

TAF (pilot weather forecast)

Closest forecast is Richmond International Airport, 15.8 nm (29.2 km) SW. Retrieved 2019/03/22 06:46 UTC (60 minutes ago):

TAF KRIC 220544Z 2206/2306 28009G15KT P6SM SCT060 OVC100 FM220900 28009KT P6SM SKC FM221900 27017G30KT P6SM BKN050 FM230000 30014G23KT P6SM FEW250